Time,TemperatureF,DewpointF,PressureIn,WindDirection,WindDirectionDegrees,WindSpeedMPH,WindSpeedGustMPH,Humidity,HourlyPrecipIn,Conditions,Clouds,dailyrainin,SoftwareType,DateUTC
2013-07-09 00:14:00,73.0,68.9,30.00,NE,45,0.0,-999.0,87,-99.99,,,0.00,Acu-Link.com,2013-07-09 04:14:00,
2013-07-09 00:29:00,72.5,68.7,30.00,SSE,157,0.0,-999.0,88,-99.99,,,0.00,Acu-Link.com,2013-07-09 04:29:00,
2013-07-09 00:45:00,72.7,69.3,30.00,WSW,247,0.0,-999.0,89,-99.99,,,0.00,Acu-Link.com,2013-07-09 04:45:00,
2013-07-09 01:00:00,72.9,69.1,30.00,West,270,0.0,-999.0,88,-99.99,,,0.00,Acu-Link.com,2013-07-09 05:00:00,
2013-07-09 01:15:00,74.7,70.2,30.00,West,270,2.2,-999.0,86,-99.99,,,0.00,Acu-Link.com,2013-07-09 05:15:00,
2013-07-09 01:30:00,74.8,70.3,30.00,North,0,0.0,-999.0,86,-99.99,,,0.00,Acu-Link.com,2013-07-09 05:30:00,
2013-07-09 01:46:00,74.8,70.3,29.99,SE,135,2.2,-999.0,86,-99.99,,,0.00,Acu-Link.com,2013-07-09 05:46:00,
2013-07-09 02:01:00,75.0,70.5,29.98,West,270,0.0,-999.0,86,-99.99,,,0.00,Acu-Link.com,2013-07-09 06:01:00,
2013-07-09 02:16:00,74.7,70.6,29.98,SSW,202,0.0,-999.0,87,-99.99,,,0.00,Acu-Link.com,2013-07-09 06:16:00,
2013-07-09 02:31:00,74.7,70.6,29.97,SW,225,1.1,-999.0,87,-99.99,,,0.00,Acu-Link.com,2013-07-09 06:31:00,
2013-07-09 02:46:00,74.5,70.4,29.97,West,270,0.0,-999.0,87,-99.99,,,0.00,Acu-Link.com,2013-07-09 06:46:00,
2013-07-09 03:02:00,74.3,70.5,29.97,SSW,202,0.0,-999.0,88,-99.99,,,0.00,Acu-Link.com,2013-07-09 07:02:00,
2013-07-09 03:17:00,74.1,70.3,29.97,WSW,247,0.0,-999.0,88,-99.99,,,0.00,Acu-Link.com,2013-07-09 07:17:00,
2013-07-09 03:32:00,74.1,70.3,29.98,SSE,157,0.0,-999.0,88,-99.99,,,0.00,Acu-Link.com,2013-07-09 07:32:00,
2013-07-09 03:47:00,74.1,70.3,29.98,South,180,1.7,-999.0,88,-99.99,,,0.00,Acu-Link.com,2013-07-09 07:47:00,
2013-07-09 04:02:00,74.3,70.5,29.98,SW,225,2.2,-999.0,88,-99.99,,,0.00,Acu-Link.com,2013-07-09 08:02:00,
2013-07-09 04:18:00,74.3,70.5,29.98,SSW,202,0.0,-999.0,88,-99.99,,,0.00,Acu-Link.com,2013-07-09 08:18:00,
2013-07-09 04:33:00,74.3,70.2,29.98,ESE,112,1.1,-999.0,87,-99.99,,,0.00,Acu-Link.com,2013-07-09 08:33:00,
2013-07-09 04:48:00,74.5,70.4,29.98,South,180,0.0,-999.0,87,-99.99,,,0.00,Acu-Link.com,2013-07-09 08:48:00,
2013-07-09 05:04:00,74.5,70.4,29.98,NW,315,1.1,-999.0,87,-99.99,,,0.00,Acu-Link.com,2013-07-09 09:04:00,
2013-07-09 05:19:00,74.3,70.2,29.98,SE,135,1.7,-999.0,87,-99.99,,,0.00,Acu-Link.com,2013-07-09 09:19:00,
2013-07-09 05:34:00,74.1,70.0,29.98,NE,45,0.0,-999.0,87,-99.99,,,0.00,Acu-Link.com,2013-07-09 09:34:00,
2013-07-09 05:49:00,73.9,69.8,29.98,SSE,157,1.1,-999.0,87,-99.99,,,0.00,Acu-Link.com,2013-07-09 09:49:00,
2013-07-09 06:04:00,73.9,70.1,29.99,SSE,157,1.1,-999.0,88,-99.99,,,0.00,Acu-Link.com,2013-07-09 10:04:00,
2013-07-09 06:19:00,73.8,70.0,29.99,SSE,157,0.0,-999.0,88,-99.99,,,0.00,Acu-Link.com,2013-07-09 10:19:00,
2013-07-09 06:34:00,73.8,70.0,29.99,SSW,202,1.1,-999.0,88,-99.99,,,0.00,Acu-Link.com,2013-07-09 10:34:00,
2013-07-09 06:50:00,73.9,70.1,29.99,West,270,0.0,-999.0,88,-99.99,,,0.00,Acu-Link.com,2013-07-09 10:50:00,
2013-07-09 07:05:00,73.9,70.4,29.99,SSE,157,0.0,-999.0,89,-99.99,,,0.00,Acu-Link.com,2013-07-09 11:05:00,
2013-07-09 07:20:00,74.1,70.6,30.00,WNW,292,0.0,-999.0,89,-99.99,,,0.00,Acu-Link.com,2013-07-09 11:20:00,
2013-07-09 07:35:00,74.1,70.6,30.00,SSE,157,0.0,-999.0,89,-99.99,,,0.00,Acu-Link.com,2013-07-09 11:35:00,
2013-07-09 07:51:00,74.7,71.2,30.00,NE,45,0.0,-999.0,89,-99.99,,,0.00,Acu-Link.com,2013-07-09 11:51:00,
2013-07-09 08:06:00,75.0,71.5,30.00,NE,45,2.7,-999.0,89,-99.99,,,0.00,Acu-Link.com,2013-07-09 12:06:00,
2013-07-09 08:21:00,75.6,72.1,29.99,ESE,112,1.7,-999.0,89,-99.99,,,0.00,Acu-Link.com,2013-07-09 12:21:00,
2013-07-09 08:36:00,77.0,72.8,29.99,West,270,1.7,-999.0,87,-99.99,,,0.00,Acu-Link.com,2013-07-09 12:36:00,
2013-07-09 08:51:00,79.5,73.9,29.98,SSE,157,0.0,-999.0,83,-99.99,,,0.00,Acu-Link.com,2013-07-09 12:51:00,
2013-07-09 09:07:00,84.2,75.0,29.98,SW,225,1.7,-999.0,74,-99.99,,,0.00,Acu-Link.com,2013-07-09 13:07:00,
2013-07-09 09:22:00,87.4,75.5,29.98,SE,135,1.7,-999.0,68,-99.99,,,0.00,Acu-Link.com,2013-07-09 13:22:00,
2013-07-09 09:37:00,88.9,74.6,29.98,ESE,112,2.2,-999.0,63,-99.99,,,0.00,Acu-Link.com,2013-07-09 13:37:00,
2013-07-09 09:52:00,90.9,76.0,29.97,West,270,1.7,-999.0,62,-99.99,,,0.00,Acu-Link.com,2013-07-09 13:52:00,
2013-07-09 10:07:00,90.3,75.5,29.97,West,270,4.2,-999.0,62,-99.99,,,0.00,Acu-Link.com,2013-07-09 14:07:00,
2013-07-09 10:23:00,89.8,74.5,29.97,SE,135,2.2,-999.0,61,-99.99,,,0.00,Acu-Link.com,2013-07-09 14:23:00,
2013-07-09 10:38:00,91.0,75.1,29.97,South,180,3.2,-999.0,60,-99.99,,,0.00,Acu-Link.com,2013-07-09 14:38:00,
2013-07-09 10:53:00,92.1,76.2,29.97,NNE,22,2.7,-999.0,60,-99.99,,,0.00,Acu-Link.com,2013-07-09 14:53:00,
2013-07-09 11:08:00,91.2,75.3,29.98,North,0,3.7,-999.0,60,-99.99,,,0.00,Acu-Link.com,2013-07-09 15:08:00,
2013-07-09 11:23:00,91.8,75.4,29.98,NNW,337,1.7,-999.0,59,-99.99,,,0.00,Acu-Link.com,2013-07-09 15:23:00,
2013-07-09 11:39:00,93.6,75.5,29.98,NNW,337,2.7,-999.0,56,-99.99,,,0.00,Acu-Link.com,2013-07-09 15:39:00,
2013-07-09 11:54:00,92.1,74.1,29.98,NE,45,3.7,-999.0,56,-99.99,,,0.00,Acu-Link.com,2013-07-09 15:54:00,
2013-07-09 12:09:00,93.0,74.9,29.98,South,180,2.2,-999.0,56,-99.99,,,0.00,Acu-Link.com,2013-07-09 16:09:00,
2013-07-09 12:24:00,95.0,75.7,29.97,NNE,22,3.7,-999.0,54,-99.99,,,0.00,Acu-Link.com,2013-07-09 16:24:00,
2013-07-09 12:40:00,97.2,74.8,29.98,NW,315,2.7,-999.0,49,-99.99,,,0.00,Acu-Link.com,2013-07-09 16:40:00,
2013-07-09 12:55:00,94.5,74.7,29.98,South,180,4.2,-999.0,53,-99.99,,,0.00,Acu-Link.com,2013-07-09 16:55:00,
2013-07-09 13:10:00,93.0,74.4,29.97,SSE,157,2.2,-999.0,55,-99.99,,,0.00,Acu-Link.com,2013-07-09 17:10:00,
2013-07-09 13:25:00,95.4,75.5,29.96,SW,225,2.7,-999.0,53,-99.99,,,0.00,Acu-Link.com,2013-07-09 17:25:00,
2013-07-09 13:40:00,96.4,74.7,29.96,ESE,112,1.7,-999.0,50,-99.99,,,0.00,Acu-Link.com,2013-07-09 17:40:00,
2013-07-09 13:56:00,95.7,74.0,29.96,West,270,4.7,-999.0,50,-99.99,,,0.00,Acu-Link.com,2013-07-09 17:56:00,
2013-07-09 14:11:00,98.8,75.0,29.97,SSW,202,1.7,-999.0,47,-99.99,,,0.00,Acu-Link.com,2013-07-09 18:11:00,
2013-07-09 14:26:00,98.1,75.0,29.96,SSE,157,2.2,-999.0,48,-99.99,,,0.00,Acu-Link.com,2013-07-09 18:26:00,
2013-07-09 14:41:00,96.1,73.8,29.95,SSE,157,3.2,-999.0,49,-99.99,,,0.00,Acu-Link.com,2013-07-09 18:41:00,
2013-07-09 14:56:00,96.1,73.8,29.95,NNE,22,2.7,-999.0,49,-99.99,,,0.00,Acu-Link.com,2013-07-09 18:56:00,
2013-07-09 15:12:00,95.9,73.0,29.94,WNW,292,1.7,-999.0,48,-99.99,,,0.00,Acu-Link.com,2013-07-09 19:12:00,
2013-07-09 15:27:00,94.1,73.2,29.94,South,180,2.2,-999.0,51,-99.99,,,0.00,Acu-Link.com,2013-07-09 19:27:00,
2013-07-09 15:42:00,95.4,73.8,29.93,NNW,337,2.7,-999.0,50,-99.99,,,0.00,Acu-Link.com,2013-07-09 19:42:00,
2013-07-09 15:57:00,93.9,73.6,29.92,SSE,157,1.7,-999.0,52,-99.99,,,0.00,Acu-Link.com,2013-07-09 19:57:00,
2013-07-09 16:12:00,92.7,73.6,29.91,ESE,112,5.3,-999.0,54,-99.99,,,0.00,Acu-Link.com,2013-07-09 20:12:00,
2013-07-09 16:28:00,95.2,75.3,29.91,SSW,202,1.7,-999.0,53,-99.99,,,0.00,Acu-Link.com,2013-07-09 20:28:00,
2013-07-09 16:43:00,93.9,74.7,29.90,West,270,1.7,-999.0,54,-99.99,,,0.00,Acu-Link.com,2013-07-09 20:43:00,
2013-07-09 16:58:00,93.2,74.0,29.91,SE,135,3.2,-999.0,54,-99.99,,,0.00,Acu-Link.com,2013-07-09 20:58:00,
2013-07-09 17:13:00,93.9,73.6,29.90,NE,45,3.7,-999.0,52,-99.99,,,0.00,Acu-Link.com,2013-07-09 21:13:00,
2013-07-09 17:29:00,91.0,72.6,29.91,SSW,202,1.7,-999.0,55,-99.99,,,0.00,Acu-Link.com,2013-07-09 21:29:00,
2013-07-09 17:44:00,93.0,73.9,29.91,WNW,292,2.7,-999.0,54,-99.99,,,0.00,Acu-Link.com,2013-07-09 21:44:00,
2013-07-09 17:59:00,92.8,73.7,29.90,WNW,292,4.2,-999.0,54,-99.99,,,0.00,Acu-Link.com,2013-07-09 21:59:00,
2013-07-09 18:14:00,93.2,73.5,29.90,SSE,157,2.7,-999.0,53,-99.99,,,0.00,Acu-Link.com,2013-07-09 22:14:00,
2013-07-09 18:29:00,91.8,72.2,29.90,SSW,202,2.7,-999.0,53,-99.99,,,0.00,Acu-Link.com,2013-07-09 22:29:00,
2013-07-09 18:45:00,90.1,71.7,29.90,South,180,1.7,-999.0,55,-99.99,,,0.00,Acu-Link.com,2013-07-09 22:45:00,
2013-07-09 19:00:00,89.8,72.5,29.90,SSE,157,2.7,-999.0,57,-99.99,,,0.00,Acu-Link.com,2013-07-09 23:00:00,
2013-07-09 20:33:00,84.7,72.5,29.90,South,180,1.7,-999.0,67,-99.99,,,0.00,Acu-Link.com,2013-07-10 00:33:00,
2013-07-09 20:48:00,84.0,71.8,29.91,South,180,0.0,-999.0,67,-99.99,,,0.00,Acu-Link.com,2013-07-10 00:48:00,
2013-07-09 21:03:00,83.3,72.5,29.91,WNW,292,3.2,-999.0,70,-99.99,,,0.00,Acu-Link.com,2013-07-10 01:03:00,
2013-07-09 21:18:00,82.6,71.8,29.91,NNW,337,0.0,-999.0,70,-99.99,,,0.00,Acu-Link.com,2013-07-10 01:18:00,
2013-07-09 21:34:00,82.0,72.1,29.91,ESE,112,0.0,-999.0,72,-99.99,,,0.00,Acu-Link.com,2013-07-10 01:34:00,
2013-07-09 21:49:00,81.7,72.2,29.91,South,180,0.0,-999.0,73,-99.99,,,0.00,Acu-Link.com,2013-07-10 01:49:00,
2013-07-09 22:04:00,81.5,72.0,29.91,SSE,157,0.0,-999.0,73,-99.99,,,0.00,Acu-Link.com,2013-07-10 02:04:00,
2013-07-09 22:19:00,81.1,72.4,29.92,West,270,0.0,-999.0,75,-99.99,,,0.00,Acu-Link.com,2013-07-10 02:19:00,
2013-07-09 22:35:00,80.8,72.5,29.92,West,270,0.0,-999.0,76,-99.99,,,0.00,Acu-Link.com,2013-07-10 02:35:00,
2013-07-09 22:50:00,80.6,72.3,29.92,SW,225,0.0,-999.0,76,-99.99,,,0.00,Acu-Link.com,2013-07-10 02:50:00,
2013-07-09 23:05:00,80.4,72.1,29.91,South,180,2.2,-999.0,76,-99.99,,,0.00,Acu-Link.com,2013-07-10 03:05:00,
2013-07-09 23:20:00,80.4,72.1,29.91,South,180,1.1,-999.0,76,-99.99,,,0.00,Acu-Link.com,2013-07-10 03:20:00,
2013-07-09 23:35:00,80.4,72.1,29.91,NNW,337,1.7,-999.0,76,-99.99,,,0.00,Acu-Link.com,2013-07-10 03:35:00,
2013-07-09 23:51:00,80.4,72.1,29.92,SE,135,3.7,-999.0,76,-99.99,,,0.00,Acu-Link.com,2013-07-10 03:51:00,